LFKC 181530Z AUTO 34006KT 310V030 CAVOK 26/19 Q1009 BECMG 23010KT

ElémentsDécodage
LFKC Station météo située sur l'aérodrome de CALVI Sainte-Catherine
181530Z émis le 18 du mois à 15h30 UTC
AUTO Bulletin édité par un automate
34006KT vent du 340°, 06 noeuds
310V030 vent de direction variable entre 310° et 030°
CAVOK Ceiling And Visibility OK
- Visibilité de 10 Km ou plus
- Pas de nuage au-dessous de 1500m ou au-dessous de l'altitude minimale du secteur la plus élevée (si>1500m) et absence de CB
- pas de temps présent significatif
26/19 température 26°C, point de rosée 19°C
 soit une humidité relative de 65%
Q1009 la pression au niveau de la mer (QNH) est de 1009 hPa
BECMG fluctuation du temps prévue
23010KT vent du 230°, 10 noeuds